Time;durP1;ratioP1;P1;durP2;ratioP2;P2;SDS_P1;SDS_P2;PMS_P1;PMS_P2;Temp;Humidity;BMP_temperature;BMP_pressure;BME280_temperature;BME280_humidity;BME280_pressure;Samples;Min_cycle;Max_cycle;Signal;HPM_P1;HPM_P2
2023/05/06 00:00:31;;;;;;;0.10;0.10;;;15.00;99.90;;;;;;5073221;28;20572;-80
2023/05/06 00:02:58;;;;;;;0.10;0.10;;;15.00;99.90;;;;;;5073646;28;20201;-80
2023/05/06 00:05:24;;;;;;;0.10;0.10;;;15.00;99.90;;;;;;5073029;28;20211;-79
2023/05/06 00:07:50;;;;;;;0.10;0.10;;;14.90;99.90;;;;;;5071165;28;20281;-80
2023/05/06 00:10:16;;;;;;;0.10;0.10;;;14.90;99.90;;;;;;5072018;28;20230;-80
2023/05/06 00:12:42;;;;;;;0.10;0.10;;;14.90;99.90;;;;;;5073156;28;20544;-81
2023/05/06 00:15:08;;;;;;;0.10;0.10;;;14.80;99.90;;;;;;5072444;28;20684;-80
2023/05/06 00:17:33;;;;;;;0.10;0.10;;;14.80;99.90;;;;;;5072275;28;20189;-79
2023/05/06 00:19:59;;;;;;;0.10;0.10;;;14.80;99.90;;;;;;5072962;28;20212;-80
2023/05/06 00:22:24;;;;;;;0.10;0.10;;;14.70;99.90;;;;;;5068336;28;20200;-80
2023/05/06 00:24:50;;;;;;;0.10;0.10;;;14.70;99.90;;;;;;5069559;28;20189;-80
2023/05/06 00:27:15;;;;;;;0.10;0.10;;;14.70;99.90;;;;;;5074211;28;20224;-80
2023/05/06 00:29:41;;;;;;;0.10;0.10;;;14.70;99.90;;;;;;5071305;28;20238;-80
2023/05/06 00:32:06;;;;;;;0.10;0.10;;;14.60;99.90;;;;;;5074203;28;20242;-80
2023/05/06 00:34:32;;;;;;;0.10;0.10;;;14.70;99.90;;;;;;5075797;28;20180;-79
2023/05/06 00:36:57;;;;;;;0.10;0.10;;;14.60;99.90;;;;;;5073979;28;20192;-80
2023/05/06 00:39:24;;;;;;;0.10;0.10;;;14.60;99.90;;;;;;5074109;28;20208;-80
2023/05/06 00:41:50;;;;;;;0.10;0.10;;;14.60;99.90;;;;;;5073923;28;20203;-80
2023/05/06 00:44:16;;;;;;;0.10;0.10;;;14.50;99.90;;;;;;5074614;28;20211;-81
2023/05/06 00:46:42;;;;;;;0.10;0.10;;;14.40;99.90;;;;;;5074194;28;20189;-80
2023/05/06 00:49:08;;;;;;;0.10;0.10;;;14.40;99.90;;;;;;5073556;28;20219;-80
2023/05/06 00:51:33;;;;;;;0.00;0.00;;;14.40;99.90;;;;;;5072926;28;20192;-80
2023/05/06 00:54:00;;;;;;;0.10;0.10;;;14.30;99.90;;;;;;5071207;28;20190;-80
2023/05/06 00:56:26;;;;;;;0.10;0.10;;;14.30;99.90;;;;;;5072557;28;20188;-80
2023/05/06 00:58:53;;;;;;;0.10;0.10;;;14.20;99.90;;;;;;5073304;28;20260;-80
2023/05/06 01:01:21;;;;;;;0.10;0.10;;;14.10;99.90;;;;;;5071571;28;20192;-80
2023/05/06 01:03:47;;;;;;;0.10;0.10;;;14.10;99.90;;;;;;5071216;28;20254;-79
2023/05/06 01:06:31;;;;;;;0.10;0.10;;;14.00;99.90;;;;;;5072401;28;20727;-80
2023/05/06 01:09:06;;;;;;;0.10;0.10;;;13.90;99.90;;;;;;5072337;28;20204;-80
2023/05/06 01:11:44;;;;;;;0.10;0.10;;;13.90;99.90;;;;;;5071885;28;20207;-79
2023/05/06 01:14:20;;;;;;;0.10;0.10;;;13.90;99.90;;;;;;5071075;28;20281;-80
2023/05/06 01:16:51;;;;;;;0.10;0.10;;;13.90;99.90;;;;;;5073495;28;20172;-80
2023/05/06 01:19:35;;;;;;;0.10;0.10;;;13.90;99.90;;;;;;5072672;28;20214;-80
2023/05/06 01:22:04;;;;;;;0.10;0.10;;;13.90;99.90;;;;;;5074498;28;20522;-80
2023/05/06 01:24:35;;;;;;;0.10;0.10;;;13.90;99.90;;;;;;5072535;28;20306;-80
2023/05/06 01:27:01;;;;;;;0.10;0.10;;;13.80;99.90;;;;;;5073130;28;20192;-80
2023/05/06 01:29:27;;;;;;;0.10;0.10;;;13.80;99.90;;;;;;5073188;28;20685;-80
2023/05/06 01:32:00;;;;;;;0.10;0.10;;;13.70;99.90;;;;;;5073504;28;20185;-80
2023/05/06 01:34:42;;;;;;;0.00;0.00;;;13.70;99.90;;;;;;5070183;28;20268;-80
2023/05/06 01:37:29;;;;;;;0.10;0.10;;;13.60;99.90;;;;;;5069728;28;20251;-79
2023/05/06 01:39:59;;;;;;;0.10;0.10;;;13.60;99.90;;;;;;5071697;28;20227;-81
2023/05/06 01:42:26;;;;;;;0.10;0.10;;;13.60;99.90;;;;;;5070505;28;20275;-82
2023/05/06 01:44:54;;;;;;;0.10;0.10;;;13.50;99.90;;;;;;5071794;28;20271;-80
2023/05/06 01:47:19;;;;;;;0.10;0.10;;;13.50;99.90;;;;;;5075530;28;20183;-80
2023/05/06 01:49:46;;;;;;;0.10;0.10;;;13.40;99.90;;;;;;5074724;28;20201;-81
2023/05/06 01:52:14;;;;;;;0.10;0.10;;;13.40;99.90;;;;;;5073838;28;20176;-81
2023/05/06 01:54:39;;;;;;;0.10;0.10;;;13.30;99.90;;;;;;5075795;28;20188;-81
2023/05/06 01:57:05;;;;;;;0.10;0.10;;;13.20;99.90;;;;;;5070761;28;20192;-80
2023/05/06 01:59:30;;;;;;;0.10;0.10;;;13.20;99.90;;;;;;5074333;28;20215;-80
2023/05/06 02:01:56;;;;;;;0.10;0.10;;;13.20;99.90;;;;;;5072980;28;20195;-80
2023/05/06 02:04:21;;;;;;;0.10;0.10;;;13.10;99.90;;;;;;5072504;28;20212;-81
2023/05/06 02:06:47;;;;;;;0.10;0.10;;;13.10;99.90;;;;;;5074339;28;20659;-81
2023/05/06 02:09:12;;;;;;;0.10;0.10;;;13.00;99.90;;;;;;5073821;28;20234;-81
2023/05/06 02:11:38;;;;;;;0.10;0.10;;;13.00;99.90;;;;;;5075230;28;20199;-80
2023/05/06 02:14:03;;;;;;;0.10;0.10;;;13.00;99.90;;;;;;5073378;28;20188;-81
2023/05/06 02:16:29;;;;;;;0.10;0.10;;;13.00;99.90;;;;;;5075353;28;20192;-80
2023/05/06 02:18:54;;;;;;;0.00;0.00;;;13.00;99.90;;;;;;5075280;28;20188;-81
2023/05/06 02:21:20;;;;;;;0.10;0.10;;;13.00;99.90;;;;;;5073944;28;20184;-81
2023/05/06 02:23:45;;;;;;;0.00;0.00;;;13.00;99.90;;;;;;5074095;28;20188;-80
2023/05/06 02:26:11;;;;;;;0.10;0.10;;;13.00;99.90;;;;;;5072565;28;21193;-81
2023/05/06 02:28:36;;;;;;;0.10;0.10;;;13.00;99.90;;;;;;5072791;28;20257;-81
2023/05/06 02:31:02;;;;;;;0.10;0.10;;;12.90;99.90;;;;;;5072064;28;20299;-81
2023/05/06 02:33:27;;;;;;;0.03;0.03;;;12.90;99.90;;;;;;5074392;28;20191;-81
2023/05/06 02:35:53;;;;;;;0.10;0.10;;;12.90;99.90;;;;;;5075861;28;20191;-80
2023/05/06 02:38:20;;;;;;;0.10;0.10;;;12.80;99.90;;;;;;5076135;28;20302;-80
2023/05/06 02:40:45;;;;;;;0.00;0.00;;;12.70;99.90;;;;;;5075274;28;20240;-79
2023/05/06 02:43:11;;;;;;;0.10;0.10;;;12.70;99.90;;;;;;5074944;28;20216;-79
2023/05/06 02:45:36;;;;;;;0.10;0.10;;;12.60;99.90;;;;;;5076184;28;20180;-80
2023/05/06 02:48:02;;;;;;;0.10;0.10;;;12.60;99.90;;;;;;5077561;28;20275;-80
2023/05/06 02:50:27;;;;;;;0.10;0.10;;;12.60;99.90;;;;;;5073764;28;20240;-80
2023/05/06 02:52:53;;;;;;;0.10;0.10;;;12.60;99.90;;;;;;5074914;28;20390;-80
2023/05/06 02:55:18;;;;;;;0.10;0.10;;;12.50;99.90;;;;;;5073716;28;20280;-80
2023/05/06 02:57:44;;;;;;;0.10;0.10;;;12.50;99.90;;;;;;5074185;28;20199;-81
2023/05/06 03:00:10;;;;;;;0.10;0.10;;;12.50;99.90;;;;;;5073872;28;20228;-81
2023/05/06 03:02:36;;;;;;;0.10;0.10;;;12.50;99.90;;;;;;5074040;28;20272;-80
2023/05/06 03:05:03;;;;;;;0.10;0.10;;;12.50;99.90;;;;;;5075047;28;20273;-81
2023/05/06 03:07:29;;;;;;;0.10;0.10;;;12.50;99.90;;;;;;5076043;28;20181;-81
2023/05/06 03:09:54;;;;;;;0.10;0.10;;;12.50;99.90;;;;;;5075310;28;20203;-80
2023/05/06 03:12:20;;;;;;;0.10;0.10;;;12.50;99.90;;;;;;5075022;28;20214;-81
2023/05/06 03:14:46;;;;;;;0.10;0.10;;;12.50;99.90;;;;;;5073659;28;20286;-81
2023/05/06 03:17:11;;;;;;;0.10;0.10;;;12.50;99.90;;;;;;5072870;28;20257;-80
2023/05/06 03:19:37;;;;;;;0.10;0.10;;;12.50;99.90;;;;;;5057737;28;20212;-81
2023/05/06 03:22:02;;;;;;;0.10;0.10;;;12.50;99.90;;;;;;5073001;28;20188;-80
2023/05/06 03:24:28;;;;;;;0.10;0.10;;;12.20;99.90;;;;;;5073819;28;20194;-81
2023/05/06 03:26:53;;;;;;;0.10;0.10;;;12.10;99.90;;;;;;5071876;28;20205;-80
2023/05/06 03:29:19;;;;;;;0.10;0.10;;;12.00;99.90;;;;;;5073111;28;20561;-81
2023/05/06 03:31:47;;;;;;;0.10;0.10;;;11.90;99.90;;;;;;5074971;28;20185;-80
2023/05/06 03:34:13;;;;;;;0.00;0.00;;;12.00;99.90;;;;;;5073365;28;20176;-81
2023/05/06 03:36:38;;;;;;;0.10;0.10;;;12.10;99.90;;;;;;5074263;28;20199;-81
2023/05/06 03:39:04;;;;;;;0.10;0.10;;;12.20;99.90;;;;;;5072430;28;20236;-84
2023/05/06 03:41:29;;;;;;;0.10;0.10;;;12.20;99.90;;;;;;5076219;28;20931;-81
2023/05/06 03:43:55;;;;;;;0.10;0.10;;;12.30;99.90;;;;;;5073895;28;20250;-81
2023/05/06 03:46:21;;;;;;;0.07;0.07;;;12.30;99.90;;;;;;5072619;28;20242;-79
2023/05/06 03:48:46;;;;;;;0.10;0.10;;;12.40;99.90;;;;;;5073240;28;20214;-79
2023/05/06 03:51:12;;;;;;;0.07;0.07;;;12.40;99.90;;;;;;5070396;28;20202;-80
2023/05/06 03:53:37;;;;;;;0.07;0.07;;;12.40;99.90;;;;;;5074782;28;20208;-80
2023/05/06 03:56:03;;;;;;;0.10;0.10;;;12.20;99.90;;;;;;5073518;28;21045;-79
2023/05/06 03:58:29;;;;;;;0.10;0.10;;;12.20;99.90;;;;;;5076325;28;20190;-80
2023/05/06 04:00:54;;;;;;;0.10;0.10;;;12.30;99.90;;;;;;5077079;28;20223;-80
2023/05/06 04:03:20;;;;;;;0.10;0.10;;;12.30;99.90;;;;;;5075119;28;20216;-80
2023/05/06 04:05:47;;;;;;;0.10;0.10;;;12.40;99.90;;;;;;5072288;28;20245;-80
2023/05/06 04:08:12;;;;;;;0.10;0.10;;;12.30;99.90;;;;;;5073856;28;20219;-80
2023/05/06 04:10:39;;;;;;;0.10;0.10;;;12.10;99.90;;;;;;5075930;28;20200;-80
2023/05/06 04:13:05;;;;;;;0.10;0.10;;;11.90;99.90;;;;;;5075527;28;20177;-79
2023/05/06 04:15:33;;;;;;;0.10;0.10;;;11.70;99.90;;;;;;5073477;28;20198;-79
2023/05/06 04:17:58;;;;;;;0.10;0.10;;;11.60;99.90;;;;;;5071933;28;20620;-80
2023/05/06 04:20:24;;;;;;;0.10;0.10;;;11.60;99.90;;;;;;5070842;28;20211;-79
2023/05/06 04:22:50;;;;;;;0.10;0.10;;;11.80;99.90;;;;;;5074309;28;20639;-80
2023/05/06 04:25:17;;;;;;;0.10;0.10;;;11.80;99.90;;;;;;5071734;28;20792;-80
2023/05/06 04:27:42;;;;;;;0.10;0.10;;;11.80;99.90;;;;;;5069856;28;20533;-79
2023/05/06 04:30:09;;;;;;;0.10;0.10;;;11.90;99.90;;;;;;5076110;28;20211;-80
2023/05/06 04:32:35;;;;;;;0.10;0.10;;;12.10;99.90;;;;;;5072990;28;20185;-80
2023/05/06 04:35:01;;;;;;;0.10;0.10;;;12.00;99.90;;;;;;5073395;28;20186;-80
2023/05/06 04:37:27;;;;;;;0.10;0.10;;;12.00;99.90;;;;;;5076747;28;20187;-80
2023/05/06 04:39:54;;;;;;;0.10;0.10;;;12.00;99.90;;;;;;5075041;28;20234;-80
2023/05/06 04:42:20;;;;;;;0.10;0.10;;;12.00;99.90;;;;;;5074293;28;20179;-79
2023/05/06 04:44:45;;;;;;;0.10;0.10;;;12.10;99.90;;;;;;5073768;28;20200;-80
2023/05/06 04:47:11;;;;;;;0.10;0.10;;;12.10;99.90;;;;;;5073250;28;20204;-80
2023/05/06 04:49:37;;;;;;;0.10;0.10;;;12.40;99.90;;;;;;5073174;28;20212;-80
2023/05/06 04:52:03;;;;;;;0.10;0.10;;;12.60;99.90;;;;;;5073782;28;20184;-80
2023/05/06 04:54:28;;;;;;;0.10;0.10;;;12.80;99.90;;;;;;5072979;28;20192;-80
2023/05/06 04:56:54;;;;;;;0.10;0.10;;;13.20;99.90;;;;;;5074854;28;20179;-80
2023/05/06 04:59:20;;;;;;;0.10;0.10;;;13.50;99.90;;;;;;5071968;28;20270;-80
2023/05/06 05:01:45;;;;;;;0.10;0.10;;;13.90;99.90;;;;;;5071388;28;20196;-81
2023/05/06 05:04:11;;;;;;;0.10;0.10;;;14.10;99.90;;;;;;5071945;28;20207;-80
2023/05/06 05:06:36;;;;;;;0.10;0.10;;;14.20;99.90;;;;;;5072495;28;20203;-80
2023/05/06 05:09:02;;;;;;;0.10;0.10;;;14.30;99.90;;;;;;5071412;28;20244;-81
2023/05/06 05:11:28;;;;;;;0.10;0.10;;;14.50;99.90;;;;;;5074054;28;20185;-82
2023/05/06 05:13:53;;;;;;;0.10;0.10;;;14.70;99.90;;;;;;5071303;28;20191;-81
2023/05/06 05:16:19;;;;;;;0.10;0.10;;;14.70;99.90;;;;;;5072334;28;20184;-83
2023/05/06 05:18:44;;;;;;;0.10;0.10;;;14.70;99.90;;;;;;5071017;28;20262;-83
2023/05/06 05:21:10;;;;;;;0.10;0.10;;;14.70;99.90;;;;;;5075150;28;20561;-82
2023/05/06 05:23:35;;;;;;;0.10;0.10;;;14.70;99.90;;;;;;5075459;28;20192;-82
2023/05/06 05:26:02;;;;;;;0.10;0.10;;;14.80;99.90;;;;;;5074415;28;20199;-82
2023/05/06 05:28:27;;;;;;;0.10;0.10;;;14.80;99.90;;;;;;5071989;28;20727;-82
2023/05/06 05:30:53;;;;;;;0.10;0.10;;;14.90;99.90;;;;;;5073304;28;20233;-82
2023/05/06 05:33:19;;;;;;;0.10;0.10;;;14.90;99.90;;;;;;5082271;28;20283;-82
2023/05/06 05:35:44;;;;;;;0.10;0.10;;;14.90;99.90;;;;;;5079034;28;20285;-82
2023/05/06 05:38:12;;;;;;;0.10;0.10;;;15.10;99.90;;;;;;5074773;28;20199;-82
2023/05/06 05:40:38;;;;;;;0.10;0.10;;;15.10;99.90;;;;;;5080936;28;20693;-82
2023/05/06 05:43:03;;;;;;;0.10;0.10;;;15.10;99.90;;;;;;5079599;28;20188;-82
2023/05/06 05:45:29;;;;;;;0.10;0.10;;;15.20;99.90;;;;;;5082685;28;20188;-82
2023/05/06 05:47:54;;;;;;;0.10;0.10;;;15.20;99.90;;;;;;5084482;28;20222;-82
2023/05/06 05:50:20;;;;;;;0.10;0.10;;;15.40;99.90;;;;;;5082563;28;20296;-82
2023/05/06 05:52:46;;;;;;;0.10;0.10;;;15.40;99.90;;;;;;5082251;28;20181;-82
2023/05/06 05:55:12;;;;;;;0.10;0.10;;;15.40;99.90;;;;;;5081481;28;20250;-82
2023/05/06 05:57:37;;;;;;;0.10;0.10;;;15.50;99.90;;;;;;5080336;28;20180;-82
2023/05/06 06:00:04;;;;;;;0.10;0.10;;;15.70;99.90;;;;;;5077702;28;20200;-82
2023/05/06 06:02:30;;;;;;;0.10;0.10;;;15.80;99.90;;;;;;5075543;28;20361;-81
2023/05/06 06:04:56;;;;;;;0.10;0.10;;;15.90;99.90;;;;;;5079722;28;20693;-82
2023/05/06 06:07:21;;;;;;;0.10;0.10;;;15.90;99.90;;;;;;5074826;28;20181;-82
2023/05/06 06:09:47;;;;;;;0.10;0.10;;;16.00;99.90;;;;;;5077288;28;20540;-82
2023/05/06 06:12:13;;;;;;;0.10;0.10;;;16.10;99.90;;;;;;5076179;28;20267;-81
2023/05/06 06:14:39;;;;;;;0.10;0.10;;;16.20;99.90;;;;;;5076928;28;20271;-81
2023/05/06 06:17:04;;;;;;;0.10;0.10;;;16.30;99.90;;;;;;5074075;28;20230;-81
2023/05/06 06:19:30;;;;;;;0.10;0.10;;;16.50;99.90;;;;;;5080085;28;20808;-80
2023/05/06 06:21:56;;;;;;;0.10;0.10;;;16.70;99.90;;;;;;5077683;28;20182;-81
2023/05/06 06:24:21;;;;;;;0.10;0.10;;;16.90;99.90;;;;;;5075342;28;20711;-81
2023/05/06 06:26:47;;;;;;;0.10;0.10;;;17.10;99.90;;;;;;5072967;28;20181;-81
2023/05/06 06:29:12;;;;;;;0.10;0.10;;;17.40;99.90;;;;;;5072613;28;21029;-81
2023/05/06 06:31:38;;;;;;;0.10;0.10;;;17.40;99.90;;;;;;5068617;28;20180;-81
2023/05/06 06:34:07;;;;;;;0.10;0.10;;;17.40;99.90;;;;;;5066474;28;20224;-81
2023/05/06 06:36:33;;;;;;;0.10;0.10;;;17.10;99.90;;;;;;5068961;28;20680;-81
2023/05/06 06:38:59;;;;;;;0.10;0.10;;;17.50;99.90;;;;;;5070348;28;20177;-81
2023/05/06 06:41:25;;;;;;;0.10;0.10;;;17.70;99.90;;;;;;5072776;28;20933;-81
2023/05/06 06:43:51;;;;;;;0.10;0.10;;;17.50;99.90;;;;;;5073178;28;20207;-81
2023/05/06 06:46:17;;;;;;;0.10;0.10;;;16.90;99.90;;;;;;5072551;28;20191;-81
2023/05/06 06:48:42;;;;;;;0.10;0.10;;;17.20;99.90;;;;;;5073452;28;20689;-81
2023/05/06 06:51:08;;;;;;;0.10;0.10;;;17.20;99.90;;;;;;5076678;28;20185;-81
2023/05/06 06:53:33;;;;;;;0.10;0.10;;;17.30;99.90;;;;;;5076130;28;20295;-81
2023/05/06 06:55:59;;;;;;;0.10;0.10;;;17.30;99.90;;;;;;5080871;28;20200;-81
2023/05/06 06:58:25;;;;;;;0.10;0.10;;;17.30;99.90;;;;;;5076713;28;20283;-81
2023/05/06 07:00:50;;;;;;;0.10;0.10;;;17.30;99.90;;;;;;5077476;28;20205;-81
2023/05/06 07:03:18;;;;;;;0.10;0.10;;;17.40;99.90;;;;;;5077981;28;20201;-81
2023/05/06 07:05:44;;;;;;;0.10;0.10;;;17.50;99.90;;;;;;5067178;28;20187;-81
2023/05/06 07:08:10;;;;;;;0.10;0.10;;;17.80;99.90;;;;;;5075902;28;20209;-81
2023/05/06 07:10:35;;;;;;;0.10;0.10;;;18.20;99.90;;;;;;5075022;28;20815;-82
2023/05/06 07:13:01;;;;;;;0.10;0.10;;;18.30;99.90;;;;;;5080412;28;20177;-82
2023/05/06 07:15:26;;;;;;;0.10;0.10;;;18.40;99.90;;;;;;5077471;28;20212;-82
2023/05/06 07:17:52;;;;;;;0.10;0.10;;;18.30;99.90;;;;;;5073962;28;20211;-82
2023/05/06 07:20:18;;;;;;;0.10;0.10;;;18.50;99.90;;;;;;5076815;28;20264;-82
2023/05/06 07:22:44;;;;;;;0.10;0.10;;;18.60;99.90;;;;;;5076880;28;20279;-82
2023/05/06 07:25:10;;;;;;;0.10;0.10;;;18.60;99.90;;;;;;5076593;28;20725;-81
2023/05/06 07:27:36;;;;;;;0.10;0.10;;;18.60;99.90;;;;;;5073394;28;20261;-82
2023/05/06 07:30:02;;;;;;;0.10;0.10;;;18.50;99.90;;;;;;5070484;28;20555;-83
2023/05/06 07:32:27;;;;;;;0.10;0.10;;;18.40;99.90;;;;;;5070295;28;20185;-83
2023/05/06 07:34:53;;;;;;;0.10;0.10;;;18.50;99.90;;;;;;5066825;28;20184;-81
2023/05/06 07:37:18;;;;;;;0.10;0.10;;;18.40;99.90;;;;;;5068921;28;20207;-81
2023/05/06 07:39:44;;;;;;;0.10;0.10;;;18.50;99.90;;;;;;5071024;28;20217;-81
2023/05/06 07:42:11;;;;;;;0.10;0.10;;;18.50;99.90;;;;;;5065636;28;20296;-81
2023/05/06 07:44:37;;;;;;;0.10;0.10;;;18.50;99.90;;;;;;5068030;28;20279;-81
2023/05/06 07:47:03;;;;;;;0.10;0.10;;;18.60;99.90;;;;;;5068697;28;20190;-81
2023/05/06 07:49:32;;;;;;;0.10;0.10;;;18.80;99.90;;;;;;5072078;28;20645;-81
2023/05/06 07:51:57;;;;;;;0.10;0.10;;;19.20;99.90;;;;;;5071325;28;20177;-81
2023/05/06 07:54:23;;;;;;;0.10;0.10;;;19.50;99.90;;;;;;5071054;28;20239;-81
2023/05/06 07:56:48;;;;;;;0.10;0.10;;;19.90;99.90;;;;;;5066584;28;20191;-82
2023/05/06 07:59:14;;;;;;;0.10;0.10;;;20.00;99.90;;;;;;5065827;28;20230;-81
2023/05/06 08:01:39;;;;;;;0.10;0.10;;;20.10;99.90;;;;;;5073363;28;20183;-81
2023/05/06 08:04:06;;;;;;;0.10;0.10;;;20.20;99.90;;;;;;5073054;28;20191;-81
2023/05/06 08:06:31;;;;;;;0.10;0.10;;;20.20;99.90;;;;;;5072992;28;20234;-82
2023/05/06 08:08:57;;;;;;;0.10;0.10;;;20.40;99.90;;;;;;5073512;28;20204;-81
2023/05/06 08:11:23;;;;;;;0.10;0.10;;;20.60;99.90;;;;;;5073022;28;20233;-81
2023/05/06 08:13:48;;;;;;;0.10;0.10;;;20.50;99.90;;;;;;5073926;28;20211;-82
2023/05/06 08:16:14;;;;;;;0.10;0.10;;;20.80;99.90;;;;;;5074283;28;20201;-83
2023/05/06 08:18:40;;;;;;;0.10;0.10;;;21.10;99.90;;;;;;5069751;28;20200;-81
2023/05/06 08:21:05;;;;;;;0.10;0.10;;;21.10;99.90;;;;;;5070341;28;20580;-81
2023/05/06 08:23:31;;;;;;;0.10;0.10;;;21.20;99.90;;;;;;5076041;28;20745;-81
2023/05/06 08:25:58;;;;;;;0.20;0.20;;;21.40;99.90;;;;;;5073312;28;20206;-82
2023/05/06 08:28:23;;;;;;;0.10;0.10;;;21.60;99.90;;;;;;5072409;28;20624;-81
2023/05/06 08:30:51;;;;;;;0.10;0.10;;;22.00;99.90;;;;;;5072333;28;20304;-81
2023/05/06 08:33:17;;;;;;;0.10;0.10;;;22.20;99.90;;;;;;5073179;28;20189;-83
2023/05/06 08:35:43;;;;;;;0.10;0.10;;;22.50;99.90;;;;;;5071735;28;20256;-81
2023/05/06 08:38:09;;;;;;;0.10;0.10;;;22.30;99.90;;;;;;5075705;28;20193;-82
2023/05/06 08:40:43;;;;;;;0.10;0.10;;;22.50;99.90;;;;;;5074591;28;20232;-82
2023/05/06 08:43:13;;;;;;;0.10;0.10;;;22.70;99.90;;;;;;5073257;28;20188;-82
2023/05/06 08:45:40;;;;;;;0.10;0.10;;;22.50;99.90;;;;;;5069326;28;20187;-82
2023/05/06 08:48:06;;;;;;;0.10;0.10;;;22.40;99.90;;;;;;5072108;28;20212;-82
2023/05/06 08:50:33;;;;;;;0.10;0.10;;;22.80;99.90;;;;;;5074597;28;20553;-82
2023/05/06 08:53:00;;;;;;;0.10;0.10;;;23.00;99.90;;;;;;5075119;28;20657;-82
2023/05/06 08:55:27;;;;;;;0.10;0.10;;;23.30;99.90;;;;;;5070516;28;20280;-81
2023/05/06 08:57:53;;;;;;;0.10;0.10;;;23.00;99.90;;;;;;5070232;28;20199;-82
2023/05/06 09:00:19;;;;;;;0.10;0.10;;;23.10;99.90;;;;;;5073231;28;20346;-82
2023/05/06 09:02:45;;;;;;;0.10;0.10;;;23.20;99.90;;;;;;5073131;28;20208;-82
2023/05/06 09:05:11;;;;;;;0.10;0.10;;;22.70;99.90;;;;;;5069689;28;20741;-82
2023/05/06 09:07:36;;;;;;;0.10;0.10;;;22.30;99.90;;;;;;5074812;28;20195;-82
2023/05/06 09:10:20;;;;;;;0.10;0.10;;;21.80;99.90;;;;;;5075033;28;21237;-82
2023/05/06 09:12:46;;;;;;;0.10;0.10;;;21.80;99.90;;;;;;5071404;28;20252;-82
2023/05/06 09:15:12;;;;;;;0.10;0.10;;;21.10;99.90;;;;;;5073185;28;20284;-82
2023/05/06 09:17:38;;;;;;;0.10;0.10;;;21.70;99.90;;;;;;5071982;28;20184;-82
2023/05/06 09:20:07;;;;;;;0.10;0.10;;;22.40;99.90;;;;;;5076441;28;20197;-82
2023/05/06 09:22:37;;;;;;;0.10;0.10;;;22.70;99.90;;;;;;5072081;28;20264;-82
2023/05/06 09:25:03;;;;;;;0.10;0.10;;;22.60;99.90;;;;;;5075255;28;20208;-83
2023/05/06 09:27:31;;;;;;;0.10;0.10;;;22.30;99.90;;;;;;5073885;28;20177;-81
2023/05/06 09:30:08;;;;;;;0.10;0.10;;;22.10;99.90;;;;;;5071378;28;20219;-81
2023/05/06 09:32:34;;;;;;;0.10;0.10;;;22.70;99.90;;;;;;5065693;28;20280;-84
2023/05/06 09:35:01;;;;;;;0.10;0.10;;;23.00;99.90;;;;;;5071954;28;20173;-85
2023/05/06 09:37:27;;;;;;;0.10;0.10;;;23.40;99.90;;;;;;5066640;28;20180;-85
2023/05/06 09:39:53;;;;;;;0.10;0.10;;;23.60;99.90;;;;;;5070875;28;20202;-84
2023/05/06 09:42:21;;;;;;;0.10;0.10;;;23.80;99.90;;;;;;5069851;28;20181;-84
2023/05/06 09:44:47;;;;;;;0.10;0.10;;;23.90;99.90;;;;;;5068726;28;20208;-85
2023/05/06 09:47:13;;;;;;;0.10;0.10;;;24.10;99.90;;;;;;5066339;28;20907;-84
2023/05/06 09:49:39;;;;;;;0.10;0.10;;;24.10;99.90;;;;;;5069237;28;20289;-84
2023/05/06 09:52:06;;;;;;;0.10;0.10;;;24.20;99.90;;;;;;5068466;28;20193;-85
2023/05/06 09:54:32;;;;;;;0.10;0.10;;;24.30;99.90;;;;;;5070259;28;20192;-84
2023/05/06 09:56:58;;;;;;;0.10;0.10;;;24.40;99.90;;;;;;5066042;28;20185;-86
2023/05/06 09:59:26;;;;;;;0.10;0.10;;;23.40;99.90;;;;;;5070506;28;20204;-85
2023/05/06 10:01:52;;;;;;;0.10;0.10;;;23.90;99.90;;;;;;5066237;28;20188;-85
2023/05/06 10:04:22;;;;;;;0.10;0.10;;;24.00;99.90;;;;;;5070746;28;20239;-85
2023/05/06 10:06:49;;;;;;;0.10;0.10;;;24.30;99.90;;;;;;5070333;28;20191;-85
2023/05/06 10:09:16;;;;;;;0.10;0.10;;;24.30;99.90;;;;;;5074703;28;20204;-85
2023/05/06 10:11:43;;;;;;;0.10;0.10;;;24.30;99.90;;;;;;5068122;28;20189;-84
2023/05/06 10:14:08;;;;;;;0.10;0.10;;;24.70;99.90;;;;;;5076289;28;20241;-83
2023/05/06 10:16:35;;;;;;;0.10;0.10;;;25.10;99.90;;;;;;5073007;28;20598;-82
2023/05/06 10:19:03;;;;;;;0.10;0.10;;;25.30;99.90;;;;;;5072377;28;20257;-82
2023/05/06 10:21:33;;;;;;;0.10;0.10;;;25.70;99.90;;;;;;5069313;28;20922;-82
2023/05/06 10:24:07;;;;;;;0.10;0.10;;;26.00;99.90;;;;;;5056757;28;20215;-85
2023/05/06 10:26:36;;;;;;;0.10;0.10;;;26.10;99.90;;;;;;5071921;28;20176;-83
2023/05/06 10:29:03;;;;;;;0.10;0.10;;;26.30;99.90;;;;;;5068193;28;20285;-83
2023/05/06 10:31:29;;;;;;;0.10;0.10;;;26.20;99.90;;;;;;5071412;28;20578;-84
2023/05/06 10:33:59;;;;;;;0.10;0.10;;;25.80;99.90;;;;;;5067589;28;20487;-84
2023/05/06 10:36:30;;;;;;;0.10;0.10;;;24.70;99.90;;;;;;5075389;28;20177;-84
2023/05/06 10:38:59;;;;;;;0.10;0.10;;;24.70;99.90;;;;;;5068769;28;20184;-84
2023/05/06 10:41:26;;;;;;;0.10;0.10;;;23.40;99.90;;;;;;5071593;28;20193;-83
2023/05/06 10:43:56;;;;;;;0.10;0.10;;;24.00;99.90;;;;;;5067301;28;20264;-82
2023/05/06 10:46:28;;;;;;;0.10;0.10;;;24.50;99.90;;;;;;5071779;28;20205;-84
2023/05/06 10:49:03;;;;;;;0.10;0.10;;;24.60;99.90;;;;;;5075374;28;20207;-83
2023/05/06 10:51:30;;;;;;;0.10;0.10;;;25.00;99.90;;;;;;5071025;28;20187;-83
2023/05/06 10:54:01;;;;;;;0.10;0.10;;;25.60;99.90;;;;;;5069327;28;20172;-83
2023/05/06 10:56:34;;;;;;;0.10;0.10;;;25.80;99.90;;;;;;5084414;28;20180;-83
2023/05/06 10:59:11;;;;;;;0.10;0.10;;;25.40;99.90;;;;;;5073973;28;20212;-83
2023/05/06 11:01:38;;;;;;;0.10;0.10;;;25.60;99.90;;;;;;5076781;28;20276;-83
2023/05/06 11:04:22;;;;;;;0.10;0.10;;;25.90;99.90;;;;;;5075688;28;20189;-82
2023/05/06 11:06:49;;;;;;;0.10;0.10;;;24.90;99.90;;;;;;5076182;28;20192;-83
2023/05/06 11:09:22;;;;;;;0.10;0.10;;;25.20;99.90;;;;;;5074385;28;20212;-83
2023/05/06 11:12:01;;;;;;;0.10;0.10;;;25.30;99.90;;;;;;5074467;28;20188;-83
2023/05/06 11:14:28;;;;;;;0.10;0.10;;;25.50;99.90;;;;;;5071155;28;20213;-83
2023/05/06 11:16:56;;;;;;;0.10;0.10;;;25.90;99.90;;;;;;5075942;28;20180;-83
2023/05/06 11:19:24;;;;;;;0.10;0.10;;;26.10;99.90;;;;;;5077015;28;20204;-83
2023/05/06 11:21:52;;;;;;;0.10;0.10;;;26.30;99.90;;;;;;5073935;28;20551;-83
2023/05/06 11:24:26;;;;;;;0.10;0.10;;;26.60;99.90;;;;;;5076095;28;20267;-83
2023/05/06 11:26:53;;;;;;;0.10;0.10;;;26.40;99.90;;;;;;5078657;28;20180;-83
2023/05/06 11:29:19;;;;;;;0.10;0.10;;;26.30;99.90;;;;;;5080597;28;20207;-82
2023/05/06 11:31:45;;;;;;;0.10;0.10;;;26.20;99.90;;;;;;5079372;28;20218;-83
2023/05/06 11:34:16;;;;;;;0.10;0.10;;;26.30;99.90;;;;;;5078612;28;20183;-83
2023/05/06 11:36:47;;;;;;;0.10;0.10;;;26.50;99.90;;;;;;5078200;28;20751;-82
2023/05/06 11:39:13;;;;;;;0.10;0.10;;;26.40;99.90;;;;;;5077293;28;20223;-83
2023/05/06 11:41:40;;;;;;;0.10;0.10;;;26.40;99.90;;;;;;5078672;28;20273;-83
2023/05/06 11:44:05;;;;;;;0.10;0.10;;;26.60;99.90;;;;;;5079299;28;20208;-82
2023/05/06 11:46:32;;;;;;;0.10;0.10;;;26.30;99.90;;;;;;5078032;28;20231;-82
2023/05/06 11:48:58;;;;;;;0.10;0.10;;;25.80;99.90;;;;;;5079271;28;20204;-82
2023/05/06 11:51:24;;;;;;;0.10;0.10;;;25.40;99.90;;;;;;5077874;28;20264;-82
2023/05/06 11:53:51;;;;;;;0.10;0.10;;;25.00;99.90;;;;;;5079695;28;20227;-82
2023/05/06 11:56:16;;;;;;;0.10;0.10;;;24.70;99.90;;;;;;5078679;28;20180;-82
2023/05/06 11:58:42;;;;;;;0.10;0.10;;;24.60;99.90;;;;;;5078518;28;20578;-82
2023/05/06 12:01:08;;;;;;;0.10;0.10;;;24.50;99.90;;;;;;5075560;28;20689;-82
2023/05/06 12:03:34;;;;;;;0.10;0.10;;;24.50;99.90;;;;;;5076226;28;20262;-82
2023/05/06 12:06:00;;;;;;;0.10;0.10;;;24.50;99.90;;;;;;5075128;28;20192;-82
2023/05/06 12:08:33;;;;;;;0.10;0.10;;;24.50;99.90;;;;;;5073899;28;20236;-82
2023/05/06 12:11:01;;;;;;;0.10;0.10;;;24.20;99.90;;;;;;5073007;28;20628;-82
2023/05/06 12:13:28;;;;;;;0.10;0.10;;;24.10;99.90;;;;;;5074618;28;20196;-82
2023/05/06 12:15:54;;;;;;;0.10;0.10;;;24.00;99.90;;;;;;5077883;28;20222;-82
2023/05/06 12:18:22;;;;;;;0.10;0.10;;;24.00;99.90;;;;;;5075700;28;20302;-81
2023/05/06 12:20:47;;;;;;;0.10;0.10;;;24.10;99.90;;;;;;5075377;28;20238;-82
2023/05/06 12:23:14;;;;;;;0.10;0.10;;;24.00;99.90;;;;;;5079401;28;20189;-82
2023/05/06 12:25:41;;;;;;;0.10;0.10;;;24.00;99.90;;;;;;5077609;28;20184;-82
2023/05/06 12:28:14;;;;;;;0.10;0.10;;;24.00;99.90;;;;;;5078060;28;20209;-82
2023/05/06 12:30:39;;;;;;;0.10;0.10;;;24.00;99.90;;;;;;5076319;28;20878;-82
2023/05/06 12:33:05;;;;;;;0.10;0.10;;;23.90;99.90;;;;;;5076256;28;20188;-82
2023/05/06 12:35:31;;;;;;;0.10;0.10;;;24.10;99.90;;;;;;5078850;28;20173;-82
2023/05/06 12:38:13;;;;;;;0.10;0.10;;;24.20;99.90;;;;;;5079022;28;20183;-82
2023/05/06 12:40:43;;;;;;;0.10;0.10;;;24.30;99.90;;;;;;5077523;28;20201;-82
2023/05/06 12:43:10;;;;;;;0.10;0.10;;;24.40;99.90;;;;;;5077827;28;20573;-82
2023/05/06 12:45:38;;;;;;;0.10;0.10;;;24.40;99.90;;;;;;5081305;28;20208;-82